Time;durP1;ratioP1;P1;durP2;ratioP2;P2;SDS_P1;SDS_P2;PMS_P1;PMS_P2;Temp;Humidity;BMP_temperature;BMP_pressure;BME280_temperature;BME280_humidity;BME280_pressure;Samples;Min_cycle;Max_cycle;Signal;HPM_P1;HPM_P2
2023/07/14 00:01:56;;;;;;;6.72;3.55;;;18.90;99.90;;;;;;4957954;28;20071;-90
2023/07/14 00:04:34;;;;;;;5.32;3.22;;;18.90;99.90;;;;;;4958312;28;20023;-89
2023/07/14 00:07:12;;;;;;;9.00;2.58;;;18.90;99.90;;;;;;4957200;28;20106;-89
2023/07/14 00:09:42;;;;;;;6.78;2.80;;;18.90;99.90;;;;;;4956479;28;20498;-89
2023/07/14 00:12:09;;;;;;;4.57;2.45;;;18.80;99.90;;;;;;4958033;28;20059;-90
2023/07/14 00:14:35;;;;;;;11.93;3.65;;;18.80;99.90;;;;;;4973479;23;20061;-89
2023/07/14 00:17:11;;;;;;;6.20;2.97;;;18.80;99.90;;;;;;4996366;28;20466;-90
2023/07/14 00:19:37;;;;;;;9.68;2.97;;;18.80;99.90;;;;;;4996183;28;20049;-89
2023/07/14 00:22:29;;;;;;;6.35;2.75;;;18.80;99.90;;;;;;4996085;28;20466;-90
2023/07/14 00:24:54;;;;;;;13.25;4.00;;;18.80;99.90;;;;;;4996134;28;20108;-90
2023/07/14 00:27:21;;;;;;;11.32;4.25;;;18.70;99.90;;;;;;5002644;23;20087;-90
2023/07/14 00:29:47;;;;;;;9.15;3.30;;;18.40;99.90;;;;;;4995703;28;20486;-90
2023/07/14 00:32:25;;;;;;;10.27;4.07;;;18.70;99.90;;;;;;4996459;28;20030;-90
2023/07/14 00:35:17;;;;;;;15.25;3.83;;;18.60;99.90;;;;;;4995617;28;20154;-89
2023/07/14 00:37:43;;;;;;;11.40;3.35;;;18.60;99.90;;;;;;4995945;28;20035;-89
2023/07/14 00:40:49;;;;;;;6.75;3.08;;;18.30;99.90;;;;;;4995727;28;20097;-90
2023/07/14 00:43:25;;;;;;;12.77;3.83;;;18.60;99.90;;;;;;4995781;28;20029;-90
2023/07/14 00:46:04;;;;;;;17.67;4.38;;;18.60;99.90;;;;;;5002403;23;20054;-91
2023/07/14 00:48:31;;;;;;;11.60;3.60;;;18.60;99.90;;;;;;4995532;28;20022;-89
2023/07/14 00:51:10;;;;;;;8.48;3.65;;;18.60;99.90;;;;;;4996314;28;20038;-89
2023/07/14 00:53:51;;;;;;;8.50;3.55;;;18.60;99.90;;;;;;5005918;28;20106;-89
2023/07/14 00:56:56;;;;;;;10.80;3.90;;;18.90;99.90;;;;;;4995292;28;20026;-89
2023/07/14 00:59:39;;;;;;;20.73;4.32;;;18.60;99.90;;;;;;4982066;28;20042;-89
2023/07/14 01:02:23;;;;;;;11.35;3.47;;;18.60;99.90;;;;;;4976212;28;20019;-89
2023/07/14 01:04:48;;;;;;;7.72;3.47;;;18.50;99.90;;;;;;4975722;28;20042;-89
2023/07/14 01:07:36;;;;;;;7.93;4.60;;;18.60;99.90;;;;;;4976243;28;20019;-90
2023/07/14 01:10:22;;;;;;;8.55;3.90;;;18.50;99.90;;;;;;4975718;28;20117;-89
2023/07/14 01:12:52;;;;;;;6.10;3.83;;;18.50;99.90;;;;;;4975473;28;20034;-90
2023/07/14 01:15:35;;;;;;;11.23;4.55;;;18.60;99.90;;;;;;4976007;28;20039;-90
2023/07/14 01:18:01;;;;;;;8.15;4.40;;;18.50;99.90;;;;;;4975719;28;20090;-90
2023/07/14 01:20:40;;;;;;;9.43;4.80;;;18.50;99.90;;;;;;4983794;23;20050;-90
2023/07/14 01:23:55;;;;;;;7.45;4.13;;;18.50;99.90;;;;;;4971892;28;20054;-91
2023/07/14 01:27:02;;;;;;;10.70;4.78;;;18.50;99.90;;;;;;4975290;28;20635;-90
2023/07/14 01:29:38;;;;;;;8.40;4.68;;;18.40;99.90;;;;;;4975579;28;20022;-89
2023/07/14 01:32:18;;;;;;;6.70;4.18;;;18.40;99.90;;;;;;4974990;28;20102;-90
2023/07/14 01:35:20;;;;;;;;;;;18.30;99.90;;;;;;4980185;23;20452;-90
2023/07/14 01:37:46;;;;;;;8.95;4.32;;;18.20;99.90;;;;;;4955579;29;20303;-90
2023/07/14 01:40:15;;;;;;;5.53;4.18;;;18.30;99.90;;;;;;4955956;29;20054;-90
2023/07/14 01:43:12;;;;;;;9.38;4.22;;;18.30;99.90;;;;;;4955674;28;20491;-89
2023/07/14 01:45:45;;;;;;;7.63;4.15;;;18.10;99.90;;;;;;4957194;28;20031;-88
2023/07/14 01:48:15;;;;;;;11.90;4.82;;;18.30;99.90;;;;;;4966233;28;20024;-89
2023/07/14 01:51:08;;;;;;;9.23;3.80;;;18.30;99.90;;;;;;4955945;28;20035;-89
2023/07/14 01:54:01;;;;;;;10.30;4.05;;;18.20;99.90;;;;;;4964043;23;20031;-89
2023/07/14 01:56:28;;;;;;;6.43;3.90;;;18.20;99.90;;;;;;4936111;29;20044;-89
2023/07/14 01:59:11;;;;;;;4.63;3.95;;;18.20;99.90;;;;;;4936251;29;20032;-90
2023/07/14 02:01:40;;;;;;;9.73;3.95;;;18.20;99.90;;;;;;4936755;29;20027;-89
2023/07/14 02:07:14;;;;;;;14.80;3.90;;;18.10;99.90;;;;;;4935748;29;20036;-90
2023/07/14 02:09:49;;;;;;;5.35;4.15;;;18.10;99.90;;;;;;4936102;29;20036;-90
2023/07/14 02:12:27;;;;;;;9.98;3.63;;;18.00;99.90;;;;;;4935778;29;20028;-89
2023/07/14 02:15:24;;;;;;;6.90;3.30;;;18.00;99.90;;;;;;4936346;29;20024;-90
2023/07/14 02:17:50;;;;;;;9.82;3.42;;;18.00;99.90;;;;;;4915264;29;20039;-89
2023/07/14 02:20:40;;;;;;;6.00;3.67;;;18.00;99.90;;;;;;4935452;29;20034;-89
2023/07/14 02:23:23;;;;;;;7.63;3.38;;;17.90;99.90;;;;;;4936166;29;20015;-88
2023/07/14 02:26:22;;;;;;;6.72;2.97;;;17.90;99.90;;;;;;4936037;29;20436;-89
2023/07/14 02:28:47;;;;;;;5.55;3.67;;;18.40;99.90;;;;;;4935522;29;20023;-88
2023/07/14 02:31:40;;;;;;;7.50;3.28;;;18.00;99.90;;;;;;4936170;29;20035;-89
2023/07/14 02:34:31;;;;;;;5.38;3.60;;;17.60;99.90;;;;;;4935398;29;20019;-89
2023/07/14 02:38:00;;;;;;;4.10;3.05;;;17.80;99.90;;;;;;4936064;29;20427;-89
2023/07/14 02:40:29;;;;;;;4.60;3.05;;;17.80;99.90;;;;;;4937819;29;20087;-89
2023/07/14 02:46:11;;;;;;;4.53;3.35;;;17.80;99.90;;;;;;5000649;23;20447;-89
2023/07/14 02:48:46;;;;;;;7.68;3.03;;;17.80;99.90;;;;;;4992898;28;20186;-89
2023/07/14 02:51:12;;;;;;;6.82;3.03;;;17.70;99.90;;;;;;4993761;28;20046;-89
2023/07/14 02:53:53;;;;;;;4.93;3.10;;;17.70;99.90;;;;;;4993544;28;20018;-89
2023/07/14 02:56:25;;;;;;;14.25;3.63;;;17.60;99.90;;;;;;4993371;28;20109;-89
2023/07/14 02:58:51;;;;;;;6.00;3.17;;;17.60;99.90;;;;;;4993682;28;20054;-89
2023/07/14 03:01:18;;;;;;;7.75;3.55;;;17.60;99.90;;;;;;4993991;28;20053;-89
2023/07/14 03:03:48;;;;;;;6.03;2.88;;;17.60;99.90;;;;;;4992734;28;20015;-88
2023/07/14 03:06:16;;;;;;;8.18;3.35;;;17.50;99.90;;;;;;4993609;28;20121;-89
2023/07/14 03:08:54;;;;;;;6.70;3.15;;;17.50;99.90;;;;;;4992922;28;20029;-89
2023/07/14 03:11:20;;;;;;;5.28;3.38;;;17.50;99.90;;;;;;4993447;28;20034;-88
2023/07/14 03:13:48;;;;;;;5.43;2.92;;;17.10;99.90;;;;;;4993562;28;20066;-89
2023/07/14 03:16:15;;;;;;;6.55;3.00;;;17.50;99.90;;;;;;4993403;28;20042;-89
2023/07/14 03:18:50;;;;;;;5.32;2.95;;;17.50;99.90;;;;;;4993103;28;20427;-89
2023/07/14 03:21:16;;;;;;;9.32;3.25;;;17.50;99.90;;;;;;4993847;28;20425;-89
2023/07/14 03:23:41;;;;;;;5.30;2.83;;;17.50;99.90;;;;;;4992646;28;20045;-88
2023/07/14 03:26:09;;;;;;;5.53;3.10;;;17.40;99.90;;;;;;4993289;28;20026;-88
2023/07/14 03:28:43;;;;;;;7.53;3.28;;;17.30;99.90;;;;;;4993405;28;20073;-89
2023/07/14 03:31:24;;;;;;;6.70;2.97;;;17.40;99.90;;;;;;4992977;28;20034;-89
2023/07/14 03:33:52;;;;;;;4.60;3.47;;;17.40;99.90;;;;;;4993460;28;20027;-89
2023/07/14 03:36:23;;;;;;;7.53;3.58;;;17.40;99.90;;;;;;5001940;28;20030;-89
2023/07/14 03:39:20;;;;;;;5.72;3.58;;;17.40;99.90;;;;;;4994342;28;20549;-88
2023/07/14 03:41:55;;;;;;;8.95;3.40;;;17.40;99.90;;;;;;4993756;28;20030;-88
2023/07/14 03:44:36;;;;;;;5.57;3.25;;;17.20;99.90;;;;;;4993889;28;20050;-88
2023/07/14 03:47:03;;;;;;;4.72;3.05;;;17.30;99.90;;;;;;4997204;28;20470;-89
2023/07/14 03:49:37;;;;;;;5.57;3.65;;;17.30;99.90;;;;;;4997296;28;20042;-88
2023/07/14 03:52:04;;;;;;;3.58;3.05;;;17.30;99.90;;;;;;4996674;28;20378;-89
2023/07/14 03:54:30;;;;;;;10.43;4.00;;;17.30;99.90;;;;;;4996228;28;20022;-89
2023/07/14 03:56:58;;;;;;;5.60;3.78;;;17.30;99.90;;;;;;4996363;28;20030;-88
2023/07/14 03:59:23;;;;;;;7.03;3.97;;;17.30;99.90;;;;;;4995840;28;20038;-89
2023/07/14 04:01:49;;;;;;;7.47;4.45;;;17.30;99.90;;;;;;4996367;28;20552;-89
2023/07/14 04:04:15;;;;;;;5.57;4.07;;;17.30;99.90;;;;;;4996623;28;20386;-89
2023/07/14 04:06:41;;;;;;;7.88;4.38;;;17.30;99.90;;;;;;4995771;28;20045;-89
2023/07/14 04:09:36;;;;;;;8.15;4.00;;;17.30;99.90;;;;;;4996515;28;20385;-89
2023/07/14 04:12:02;;;;;;;7.60;4.32;;;17.30;99.90;;;;;;4987269;28;20034;-89
2023/07/14 04:14:28;;;;;;;7.30;3.85;;;17.00;99.90;;;;;;4999173;28;20038;-89
2023/07/14 04:16:54;;;;;;;9.48;4.82;;;17.30;99.90;;;;;;5001420;28;20466;-89
2023/07/14 04:19:19;;;;;;;8.07;4.00;;;17.20;99.90;;;;;;4999971;28;20061;-89
2023/07/14 04:21:46;;;;;;;9.07;4.43;;;17.20;99.90;;;;;;4995618;28;20501;-89
2023/07/14 04:24:20;;;;;;;7.25;3.80;;;17.20;99.90;;;;;;4996426;28;20093;-89
2023/07/14 04:26:55;;;;;;;5.60;3.80;;;17.20;99.90;;;;;;4995630;28;20031;-89
2023/07/14 04:29:21;;;;;;;5.90;3.58;;;17.20;99.90;;;;;;4998959;28;20041;-90
2023/07/14 04:31:47;;;;;;;9.25;4.53;;;17.20;99.90;;;;;;5010260;28;20066;-89
2023/07/14 04:34:13;;;;;;;6.28;3.20;;;17.30;99.90;;;;;;4997432;28;20097;-89
2023/07/14 04:36:48;;;;;;;;;;;;;;;;;;;;;
2023/07/14 04:39:14;;;;;;;7.40;3.50;;;17.30;99.90;;;;;;4992955;28;20038;-88
2023/07/14 04:42:00;;;;;;;5.93;3.80;;;17.40;99.90;;;;;;4994960;28;20533;-89
2023/07/14 04:44:26;;;;;;;6.40;3.72;;;17.30;99.90;;;;;;4994730;28;20137;-88
2023/07/14 04:47:08;;;;;;;6.82;4.03;;;17.30;99.90;;;;;;4993528;28;20443;-89
2023/07/14 04:49:52;;;;;;;7.88;4.07;;;17.30;99.90;;;;;;4994847;28;20038;-87
2023/07/14 04:52:18;;;;;;;8.82;4.30;;;17.30;99.90;;;;;;4987954;28;20033;-86
2023/07/14 04:54:47;;;;;;;13.80;4.53;;;17.30;99.90;;;;;;4987960;28;20061;-87
2023/07/14 04:57:13;;;;;;;7.25;4.47;;;17.30;99.90;;;;;;4986746;28;20031;-86
2023/07/14 04:59:38;;;;;;;8.23;4.30;;;17.30;99.90;;;;;;4983673;28;20030;-87
2023/07/14 05:02:05;;;;;;;10.07;4.28;;;17.30;99.90;;;;;;4983903;28;20405;-87
2023/07/14 05:04:32;;;;;;;9.00;4.40;;;17.30;99.90;;;;;;4983994;28;20030;-87
2023/07/14 05:07:00;;;;;;;9.60;4.00;;;17.40;99.90;;;;;;4985626;28;20034;-87
2023/07/14 05:09:25;;;;;;;9.98;4.18;;;17.40;99.90;;;;;;4984264;28;20137;-88
2023/07/14 05:11:51;;;;;;;8.15;4.40;;;17.40;99.90;;;;;;4983087;28;20058;-87
2023/07/14 05:14:17;;;;;;;6.80;4.40;;;17.40;99.90;;;;;;4983394;28;20471;-87
2023/07/14 05:17:08;;;;;;;11.60;4.75;;;17.40;99.90;;;;;;4984262;28;20503;-92
2023/07/14 05:19:52;;;;;;;8.48;4.38;;;17.40;99.90;;;;;;4988981;28;20034;-89
2023/07/14 05:22:18;;;;;;;8.65;4.80;;;17.40;99.90;;;;;;4985599;28;20100;-87
2023/07/14 05:24:43;;;;;;;10.55;5.32;;;17.40;99.90;;;;;;4985455;23;20047;-92
2023/07/14 05:27:26;;;;;;;11.45;6.03;;;17.50;99.90;;;;;;4987322;28;20030;-90
2023/07/14 05:29:53;;;;;;;8.98;4.43;;;17.50;99.90;;;;;;4962789;28;20105;-89
2023/07/14 05:32:21;;;;;;;7.10;4.68;;;17.60;99.90;;;;;;4982334;28;20034;-88
2023/07/14 05:34:49;;;;;;;9.40;6.25;;;17.60;99.90;;;;;;4980195;28;20019;-87
2023/07/14 05:37:15;;;;;;;11.13;5.32;;;17.60;99.90;;;;;;4980182;28;20031;-87
2023/07/14 05:39:47;;;;;;;14.05;6.22;;;17.60;99.90;;;;;;4955186;28;20533;-87
2023/07/14 05:42:13;;;;;;;7.95;5.47;;;17.60;99.90;;;;;;4979657;28;20026;-88
2023/07/14 05:44:45;;;;;;;15.80;6.40;;;17.50;99.90;;;;;;4980331;28;20055;-88
2023/07/14 05:47:11;;;;;;;9.70;5.63;;;17.60;99.90;;;;;;4975215;28;20019;-87
2023/07/14 05:49:36;;;;;;;15.00;7.15;;;17.50;99.90;;;;;;4979935;28;20499;-88
2023/07/14 05:52:02;;;;;;;11.52;5.30;;;17.60;99.90;;;;;;4974994;28;20501;-88
2023/07/14 05:54:29;;;;;;;11.65;6.25;;;17.60;99.90;;;;;;4973093;28;20034;-87
2023/07/14 05:56:55;;;;;;;13.88;6.22;;;17.60;99.90;;;;;;4972842;28;20027;-87
2023/07/14 05:59:21;;;;;;;12.45;6.07;;;17.60;99.90;;;;;;4983360;28;20021;-88
2023/07/14 06:01:47;;;;;;;14.15;6.75;;;17.60;99.90;;;;;;4983531;28;20018;-87
2023/07/14 06:04:16;;;;;;;10.25;6.40;;;17.70;99.90;;;;;;4982345;28;20050;-87
2023/07/14 06:06:57;;;;;;;11.95;6.10;;;17.70;99.90;;;;;;4984980;28;20042;-91
2023/07/14 06:10:01;;;;;;;13.60;7.28;;;17.70;99.90;;;;;;5023309;23;20442;-89
2023/07/14 06:15:51;;;;;;;11.48;5.97;;;17.80;99.90;;;;;;5478766;23;20059;-86
2023/07/14 06:18:25;;;;;;;10.63;7.07;;;17.80;99.90;;;;;;4991241;23;20054;-86
2023/07/14 06:20:59;;;;;;;13.98;7.47;;;17.80;99.90;;;;;;4981325;28;20399;-85
2023/07/14 06:23:26;;;;;;;18.90;7.57;;;17.50;99.90;;;;;;4981360;28;20027;-90
2023/07/14 06:25:58;;;;;;;17.80;7.35;;;17.80;99.90;;;;;;4992760;23;20046;-88
2023/07/14 06:28:30;;;;;;;16.65;7.20;;;17.90;99.90;;;;;;4992313;28;20031;-88
2023/07/14 06:30:57;;;;;;;15.80;6.95;;;17.90;99.90;;;;;;4990058;28;20046;-88
2023/07/14 06:33:24;;;;;;;13.23;6.80;;;17.80;99.90;;;;;;4983436;28;20022;-88
2023/07/14 06:35:51;;;;;;;12.45;7.32;;;17.90;99.90;;;;;;4983119;28;20050;-88
2023/07/14 06:38:16;;;;;;;13.90;7.57;;;18.00;99.90;;;;;;4983186;28;20106;-89
2023/07/14 06:40:42;;;;;;;13.65;7.65;;;17.90;99.90;;;;;;4973355;28;20463;-88
2023/07/14 06:43:09;;;;;;;13.93;8.68;;;18.00;99.90;;;;;;4974227;28;20550;-87
2023/07/14 06:45:35;;;;;;;13.52;7.78;;;18.00;99.90;;;;;;4972977;28;20114;-85
2023/07/14 06:48:05;;;;;;;15.48;8.07;;;18.00;99.90;;;;;;4972770;28;20074;-87
2023/07/14 06:50:30;;;;;;;17.27;9.30;;;18.00;99.90;;;;;;4986254;28;20034;-91
2023/07/14 06:52:56;;;;;;;17.10;8.20;;;17.90;99.90;;;;;;4989226;28;20025;-92
2023/07/14 06:55:24;;;;;;;11.52;8.00;;;18.00;99.90;;;;;;4984990;28;20022;-91
2023/07/14 06:58:03;;;;;;;13.85;8.75;;;18.00;99.90;;;;;;4991482;28;20014;-89
2023/07/14 07:00:31;;;;;;;18.10;8.07;;;18.10;99.90;;;;;;4991967;28;20036;-91
2023/07/14 07:02:57;;;;;;;15.77;9.43;;;18.10;99.90;;;;;;4991729;28;20023;-90
2023/07/14 07:05:23;;;;;;;13.48;8.13;;;18.20;99.90;;;;;;4991576;28;20106;-90
2023/07/14 07:07:49;;;;;;;17.08;9.23;;;18.20;99.90;;;;;;4990619;28;20061;-90
2023/07/14 07:10:15;;;;;;;18.35;8.57;;;18.20;99.90;;;;;;4991491;28;20100;-90
2023/07/14 07:12:50;;;;;;;11.00;8.43;;;18.10;99.90;;;;;;4992229;28;20495;-91
2023/07/14 07:15:16;;;;;;;14.07;9.15;;;18.10;99.90;;;;;;5002365;28;20034;-90
2023/07/14 07:17:43;;;;;;;18.00;9.05;;;18.10;99.90;;;;;;4992205;28;20030;-90
2023/07/14 07:20:18;;;;;;;14.60;9.07;;;18.20;99.90;;;;;;4996917;28;20038;-90
2023/07/14 07:22:55;;;;;;;20.15;9.32;;;17.70;99.90;;;;;;4996374;28;20509;-90
2023/07/14 07:25:21;;;;;;;13.80;8.70;;;18.30;99.90;;;;;;4996953;28;20050;-90
2023/07/14 07:27:48;;;;;;;18.25;9.30;;;18.30;99.90;;;;;;5005741;23;20176;-90
2023/07/14 07:30:14;;;;;;;14.77;8.00;;;18.30;99.90;;;;;;4997761;28;20030;-89
2023/07/14 07:32:41;;;;;;;18.52;8.15;;;18.30;99.90;;;;;;5003938;23;20062;-90
2023/07/14 07:35:08;;;;;;;12.80;7.68;;;18.40;99.90;;;;;;4997175;28;20427;-91
2023/07/14 07:40:20;;;;;;;17.45;7.88;;;18.40;99.90;;;;;;5001499;23;20121;-91
2023/07/14 07:42:51;;;;;;;22.77;7.80;;;18.50;99.90;;;;;;4996269;28;20371;-90
2023/07/14 07:45:29;;;;;;;12.85;8.20;;;18.40;99.90;;;;;;4996630;28;20470;-91
2023/07/14 07:47:56;;;;;;;15.15;7.63;;;18.60;99.90;;;;;;4995406;23;20396;-90
2023/07/14 07:50:22;;;;;;;13.32;6.90;;;18.60;99.90;;;;;;4976621;28;20039;-91
2023/07/14 07:52:52;;;;;;;16.15;7.85;;;18.60;99.90;;;;;;4977324;28;20106;-91
2023/07/14 07:56:14;;;;;;;13.65;6.93;;;18.60;99.90;;;;;;4977242;28;20027;-90
2023/07/14 07:58:58;;;;;;;15.80;7.15;;;18.60;99.90;;;;;;4974298;28;20427;-91
2023/07/14 08:01:39;;;;;;;11.00;6.47;;;18.50;99.90;;;;;;4976997;28;20026;-90
2023/07/14 08:04:04;;;;;;;13.45;6.72;;;18.50;99.90;;;;;;4991824;23;20050;-91
2023/07/14 08:06:30;;;;;;;9.82;7.00;;;18.60;99.90;;;;;;4996704;28;20514;-90
2023/07/14 08:09:12;;;;;;;11.10;6.30;;;18.50;99.90;;;;;;5004477;28;20018;-90
2023/07/14 08:11:57;;;;;;;11.50;6.57;;;18.50;99.90;;;;;;5005031;23;20125;-90
2023/07/14 08:14:23;;;;;;;15.80;8.60;;;18.60;99.90;;;;;;5009492;23;20392;-90
2023/07/14 08:16:58;;;;;;;11.73;6.50;;;18.50;99.90;;;;;;5003160;23;20062;-90
2023/07/14 08:19:24;;;;;;;12.65;6.50;;;18.60;99.90;;;;;;5010988;23;20050;-90
2023/07/14 08:21:50;;;;;;;10.90;6.97;;;18.60;99.90;;;;;;4996271;28;20485;-90
2023/07/14 08:24:15;;;;;;;10.55;5.90;;;17.40;99.90;;;;;;4996384;28;20101;-90
2023/07/14 08:26:50;;;;;;;15.27;6.75;;;18.70;99.90;;;;;;4994510;28;20552;-90
2023/07/14 08:29:16;;;;;;;20.00;6.78;;;18.70;99.90;;;;;;4996817;28;20041;-91
2023/07/14 08:31:43;;;;;;;13.02;6.68;;;18.70;99.90;;;;;;4996872;28;20121;-90
2023/07/14 08:34:09;;;;;;;7.75;5.82;;;18.80;99.90;;;;;;4998573;28;20426;-91
2023/07/14 08:36:48;;;;;;;11.55;6.07;;;18.90;99.90;;;;;;4998296;28;20086;-91
2023/07/14 08:39:23;;;;;;;8.93;5.38;;;18.90;99.90;;;;;;4998311;28;20089;-91
2023/07/14 08:41:55;;;;;;;13.05;6.80;;;18.90;99.90;;;;;;4997060;28;20458;-90
2023/07/14 08:44:51;;;;;;;15.23;5.90;;;18.90;99.90;;;;;;4996120;28;20023;-90
2023/07/14 08:47:26;;;;;;;11.23;5.55;;;19.00;99.90;;;;;;4995272;28;20026;-90
2023/07/14 08:50:11;;;;;;;11.00;5.20;;;19.00;99.90;;;;;;4996138;28;20030;-90
2023/07/14 08:52:57;;;;;;;10.90;6.15;;;19.00;99.90;;;;;;4995834;28;20054;-91
2023/07/14 08:55:38;;;;;;;7.95;4.68;;;19.10;99.90;;;;;;4991048;23;20074;-90
2023/07/14 08:58:27;;;;;;;12.23;5.68;;;19.10;99.90;;;;;;5002643;23;20050;-91
2023/07/14 09:00:56;;;;;;;7.18;4.55;;;19.10;99.90;;;;;;4972742;23;20042;-90
2023/07/14 09:03:57;;;;;;;9.45;4.63;;;19.20;99.90;;;;;;5000793;28;20022;-91
2023/07/14 09:06:46;;;;;;;6.22;3.85;;;19.20;99.90;;;;;;4936889;29;20059;-91
2023/07/14 09:09:16;;;;;;;12.90;4.93;;;19.20;99.90;;;;;;4969505;23;20498;-90
2023/07/14 09:12:18;;;;;;;13.23;4.65;;;19.30;99.90;;;;;;4995997;28;20121;-90
2023/07/14 09:14:58;;;;;;;7.78;4.50;;;19.30;99.90;;;;;;4994770;28;20029;-90
2023/07/14 09:17:53;;;;;;;7.32;4.65;;;19.40;99.90;;;;;;4995572;28;20026;-91
2023/07/14 09:20:37;;;;;;;8.60;3.60;;;19.40;99.90;;;;;;4995690;28;20029;-89
2023/07/14 09:23:34;;;;;;;4.82;3.70;;;19.40;99.90;;;;;;4994588;28;20470;-90
2023/07/14 09:26:33;;;;;;;9.25;4.20;;;19.40;99.90;;;;;;4995315;28;20482;-91
2023/07/14 09:29:34;;;;;;;7.00;3.88;;;19.50;99.90;;;;;;4994560;28;20046;-91
2023/07/14 09:32:20;;;;;;;10.82;4.28;;;19.60;99.90;;;;;;4994452;28;20406;-90
2023/07/14 09:35:07;;;;;;;8.07;3.05;;;19.60;99.90;;;;;;4994691;28;20089;-91
2023/07/14 09:40:58;;;;;;;4.30;3.10;;;19.70;99.90;;;;;;5001675;23;20055;-90
2023/07/14 09:43:25;;;;;;;6.40;3.50;;;19.80;99.90;;;;;;4994142;28;20030;-91
2023/07/14 09:46:00;;;;;;;6.35;3.72;;;19.80;99.90;;;;;;4994386;28;20026;-90
2023/07/14 09:48:42;;;;;;;6.57;3.47;;;19.40;99.90;;;;;;4994733;28;20069;-90
2023/07/14 09:51:29;;;;;;;;;;;;;;;;;;;;;
2023/07/14 09:57:12;;;;;;;5.97;3.00;;;19.90;99.90;;;;;;4997556;28;20116;-90
2023/07/14 10:00:13;;;;;;;7.10;2.72;;;19.70;99.90;;;;;;5003949;28;20031;-91
2023/07/14 10:02:39;;;;;;;;;;;20.00;99.90;;;;;;4995026;28;20474;-89
2023/07/14 10:07:48;;;;;;;;;;;20.10;99.90;;;;;;5007649;23;20042;-91
2023/07/14 10:10:31;;;;;;;6.28;3.40;;;20.10;99.90;;;;;;4996410;28;19913;-91
2023/07/14 10:12:57;;;;;;;10.63;3.50;;;20.10;99.90;;;;;;5011247;28;20113;-90
2023/07/14 10:15:57;;;;;;;6.35;4.13;;;19.60;99.90;;;;;;4972913;23;20098;-91
2023/07/14 10:18:23;;;;;;;;;;;20.20;99.90;;;;;;4955307;28;20501;-91
2023/07/14 10:21:04;;;;;;;9.25;4.10;;;20.20;99.90;;;;;;4956339;28;20004;-91
2023/07/14 10:23:30;;;;;;;;;;;19.80;99.90;;;;;;4948565;23;20109;-91
2023/07/14 10:25:58;;;;;;;7.03;4.00;;;20.30;99.90;;;;;;4993861;28;19905;-91
2023/07/14 10:28:38;;;;;;;;;;;;;;;;;;;;;
2023/07/14 10:31:24;;;;;;;;;;;20.30;99.90;;;;;;4972514;28;20049;-91
2023/07/14 10:34:06;;;;;;;11.85;4.82;;;20.30;99.90;;;;;;4973335;28;19916;-90
2023/07/14 10:36:49;;;;;;;6.93;4.07;;;20.30;99.90;;;;;;4977339;28;20069;-90
2023/07/14 10:39:27;;;;;;;7.55;4.10;;;20.30;99.90;;;;;;4991213;23;20054;-90
2023/07/14 10:42:04;;;;;;;6.15;3.70;;;20.60;99.90;;;;;;5008099;23;20061;-89
2023/07/14 10:44:39;;;;;;;7.95;4.22;;;20.20;99.90;;;;;;5010539;28;20030;-90
2023/07/14 10:47:14;;;;;;;5.75;3.92;;;20.20;99.90;;;;;;5004498;28;20030;-90
2023/07/14 10:49:47;;;;;;;9.02;4.40;;;20.10;99.90;;;;;;5003038;28;20489;-89
2023/07/14 10:52:40;;;;;;;4.85;4.05;;;20.10;99.90;;;;;;5005350;28;20126;-90
2023/07/14 10:58:27;;;;;;;6.20;4.05;;;20.20;99.90;;;;;;5015266;23;20062;-92
2023/07/14 11:04:44;;;;;;;7.97;3.58;;;19.90;99.90;;;;;;5007681;23;20145;-89
2023/07/14 11:07:40;;;;;;;7.40;4.28;;;20.40;99.90;;;;;;4989094;28;20096;-91
2023/07/14 11:10:41;;;;;;;8.30;4.00;;;20.40;99.90;;;;;;4997303;28;20176;-90
2023/07/14 11:13:35;;;;;;;4.82;3.70;;;20.50;99.90;;;;;;5012139;28;20104;-91
2023/07/14 11:16:10;;;;;;;4.45;3.30;;;19.40;99.90;;;;;;5005181;28;20474;-91
2023/07/14 11:43:53;;;;;;;7.20;3.38;;;20.90;99.90;;;;;;4964975;28;20037;-90
2023/07/14 11:46:21;;;;;;;4.63;2.83;;;21.10;99.90;;;;;;4965665;28;20027;-89
2023/07/14 11:49:05;;;;;;;4.65;3.10;;;20.90;99.90;;;;;;4979138;28;20109;-89
2023/07/14 11:52:11;;;;;;;4.22;3.15;;;21.00;99.90;;;;;;4970485;28;20047;-90
2023/07/14 11:54:56;;;;;;;4.20;2.88;;;21.00;99.90;;;;;;4854710;29;20100;-91
2023/07/14 11:57:29;;;;;;;3.78;3.00;;;21.10;99.90;;;;;;4848016;29;20080;-91
2023/07/14 13:23:55;;;;;;;6.20;2.83;;;22.40;99.90;;;;;;5027358;23;20495;-92
2023/07/14 13:26:50;;;;;;;6.18;2.35;;;22.50;99.90;;;;;;4975629;23;20031;-91
2023/07/14 13:32:47;;;;;;;5.50;2.42;;;22.50;99.90;;;;;;4972262;28;20109;-89
2023/07/14 13:35:43;;;;;;;6.18;2.80;;;22.50;99.90;;;;;;4977071;28;20022;-90
2023/07/14 13:38:34;;;;;;;5.60;2.13;;;22.50;99.90;;;;;;4983493;28;20026;-91
2023/07/14 13:41:22;;;;;;;5.38;3.03;;;22.20;99.90;;;;;;4964313;28;20074;-91
2023/07/14 13:44:09;;;;;;;3.72;2.65;;;22.50;99.90;;;;;;4972813;28;20784;-89
2023/07/14 13:46:37;;;;;;;2.95;2.40;;;22.50;99.90;;;;;;4976298;28;20071;-90
2023/07/14 13:49:06;;;;;;;2.50;2.15;;;22.50;99.90;;;;;;4979542;28;20023;-89
2023/07/14 13:51:46;;;;;;;4.50;2.30;;;22.50;99.90;;;;;;4981240;28;20158;-89
2023/07/14 13:54:18;;;;;;;6.50;3.42;;;22.50;99.90;;;;;;4969613;28;20069;-88
2023/07/14 13:57:08;;;;;;;4.53;2.55;;;22.60;99.90;;;;;;4967234;28;20030;-90
2023/07/14 13:59:34;;;;;;;4.25;2.60;;;22.60;99.90;;;;;;4986982;28;20033;-88
2023/07/14 14:11:24;;;;;;;3.55;2.70;;;22.70;99.90;;;;;;4968444;28;20035;-87
2023/07/14 14:13:50;;;;;;;3.97;2.67;;;22.70;99.90;;;;;;4973344;28;20033;-87
2023/07/14 14:16:26;;;;;;;4.20;2.85;;;22.70;99.90;;;;;;4973541;28;20026;-88
2023/07/14 14:18:51;;;;;;;5.53;2.90;;;23.10;99.90;;;;;;4972672;28;20110;-86
2023/07/14 14:21:17;;;;;;;8.63;2.83;;;22.70;99.90;;;;;;4973892;28;20055;-88
2023/07/14 14:23:43;;;;;;;6.00;2.78;;;22.80;99.90;;;;;;4972925;28;20105;-86
2023/07/14 14:26:21;;;;;;;3.72;2.85;;;22.80;99.90;;;;;;4994936;23;20092;-87
2023/07/14 14:28:59;;;;;;;6.95;2.72;;;22.80;99.90;;;;;;4993085;28;20081;-88
2023/07/14 14:31:31;;;;;;;5.00;2.55;;;22.80;99.90;;;;;;4995153;28;20026;-87
2023/07/14 14:33:58;;;;;;;2.58;2.35;;;22.80;99.90;;;;;;4982308;28;20022;-87
2023/07/14 14:36:26;;;;;;;6.45;3.38;;;22.90;99.90;;;;;;4991352;28;20026;-87
2023/07/14 14:38:51;;;;;;;5.53;2.83;;;23.40;99.90;;;;;;5000020;28;20494;-87
2023/07/14 14:41:24;;;;;;;7.03;2.55;;;23.20;99.90;;;;;;4990814;28;20062;-87
2023/07/14 14:43:54;;;;;;;3.10;2.42;;;23.20;99.90;;;;;;4982582;28;20054;-88
2023/07/14 14:46:29;;;;;;;2.28;2.08;;;23.70;99.90;;;;;;4986123;28;20030;-88
2023/07/14 14:48:55;;;;;;;4.68;2.35;;;23.50;99.90;;;;;;4992705;28;20041;-88
2023/07/14 14:51:20;;;;;;;2.75;2.35;;;23.60;99.90;;;;;;4992752;28;20034;-90
2023/07/14 14:53:46;;;;;;;4.78;2.85;;;23.60;99.90;;;;;;4977261;28;20023;-88
2023/07/14 14:56:29;;;;;;;3.83;2.63;;;23.80;99.70;;;;;;4982539;28;20437;-88
2023/07/14 14:59:00;;;;;;;4.15;2.50;;;23.90;99.00;;;;;;4987249;28;20019;-87
2023/07/14 15:01:35;;;;;;;5.45;2.47;;;24.00;99.00;;;;;;4989732;28;20031;-87
2023/07/14 15:04:01;;;;;;;5.93;2.63;;;24.00;99.20;;;;;;4984367;28;20027;-87
2023/07/14 15:07:12;;;;;;;3.13;2.15;;;24.10;98.90;;;;;;4974983;28;20034;-86
2023/07/14 15:09:40;;;;;;;4.53;2.50;;;24.00;98.70;;;;;;4990293;28;20030;-86
2023/07/14 15:12:24;;;;;;;3.83;2.67;;;24.60;98.60;;;;;;4993194;28;20514;-90
2023/07/14 15:15:04;;;;;;;2.53;2.22;;;24.10;98.90;;;;;;4980657;23;20053;-92
2023/07/14 15:17:33;;;;;;;3.15;2.33;;;24.10;98.90;;;;;;4990719;23;20050;-87
2023/07/14 15:20:00;;;;;;;5.78;2.40;;;24.00;98.60;;;;;;4992481;28;20117;-88
2023/07/14 15:22:30;;;;;;;3.33;2.67;;;24.50;98.80;;;;;;4992812;28;20030;-90
2023/07/14 15:24:55;;;;;;;3.95;2.70;;;23.90;99.00;;;;;;4990586;28;20030;-89
2023/07/14 15:27:21;;;;;;;7.97;2.47;;;23.80;98.80;;;;;;4974028;28;20377;-89
2023/07/14 15:29:47;;;;;;;3.47;2.40;;;24.00;99.30;;;;;;4972262;28;20077;-87
2023/07/14 15:32:24;;;;;;;4.05;3.30;;;23.80;99.30;;;;;;4972169;28;20038;-91
2023/07/14 15:37:36;;;;;;;5.10;3.70;;;23.40;99.30;;;;;;4978492;23;20141;-88
2023/07/14 15:40:02;;;;;;;6.65;2.58;;;24.10;99.60;;;;;;4974860;28;20105;-88
2023/07/14 15:42:30;;;;;;;6.43;3.55;;;23.80;99.50;;;;;;4977181;28;20022;-89
2023/07/14 15:44:56;;;;;;;3.33;2.95;;;23.60;99.70;;;;;;4977579;28;20647;-89
2023/07/14 15:47:33;;;;;;;5.38;2.80;;;24.00;99.90;;;;;;4977507;28;20155;-89
2023/07/14 15:49:59;;;;;;;4.72;2.70;;;23.20;99.80;;;;;;4977521;28;20077;-89
2023/07/14 15:52:25;;;;;;;5.70;2.53;;;23.50;99.70;;;;;;4977095;28;20030;-90
2023/07/14 15:54:50;;;;;;;4.47;2.47;;;23.40;99.90;;;;;;4977309;28;20082;-90
2023/07/14 15:57:17;;;;;;;3.67;2.45;;;23.80;99.90;;;;;;4976433;28;20026;-86
2023/07/14 15:59:43;;;;;;;5.28;2.55;;;23.30;99.90;;;;;;4977004;28;20034;-89
2023/07/14 16:02:24;;;;;;;4.80;2.55;;;23.30;99.90;;;;;;4985234;23;20027;-87